Time;durP1;ratioP1;P1;durP2;ratioP2;P2;SDS_P1;SDS_P2;PMS_P1;PMS_P2;Temp;Humidity;BMP_temperature;BMP_pressure;BME280_temperature;BME280_humidity;BME280_pressure;Samples;Min_cycle;Max_cycle;Signal;HPM_P1;HPM_P2
2023/07/20 00:01:26;;;;;;;4.00;1.60;;;;;;;22.86;64.03;97949.13;4198542;28;20659;-77
2023/07/20 00:03:29;;;;;;;2.80;1.80;;;;;;;22.83;64.42;97954.81;4196314;28;20672;-77
2023/07/20 00:05:33;;;;;;;3.03;1.80;;;;;;;22.78;63.98;97946.56;4197478;28;20673;-77
2023/07/20 00:07:36;;;;;;;3.10;1.90;;;;;;;22.73;63.54;97944.44;4200872;28;20653;-77
2023/07/20 00:09:39;;;;;;;2.50;1.80;;;;;;;22.68;63.24;97946.00;4198056;28;21008;-77
2023/07/20 00:11:50;;;;;;;2.63;1.60;;;;;;;22.64;63.27;97947.34;4201831;28;20662;-77
2023/07/20 00:13:55;;;;;;;3.50;2.00;;;;;;;22.62;63.40;97948.56;4215607;28;20662;-77
2023/07/20 00:15:58;;;;;;;2.93;1.90;;;;;;;22.58;63.49;97957.91;4190578;28;20660;-77
2023/07/20 00:18:01;;;;;;;2.57;1.87;;;;;;;22.56;62.52;97952.78;4205721;28;20647;-77
2023/07/20 00:20:06;;;;;;;3.00;1.87;;;;;;;22.54;62.70;97953.97;4205182;28;21017;-77
2023/07/20 00:22:09;;;;;;;2.90;1.97;;;;;;;22.52;62.59;97959.47;4203244;28;21256;-77
2023/07/20 00:24:12;;;;;;;3.20;2.33;;;;;;;22.51;62.66;97957.00;4209841;28;21034;-77
2023/07/20 00:26:15;;;;;;;3.57;1.83;;;;;;;22.50;63.30;97964.13;4202696;28;20645;-77
2023/07/20 00:28:19;;;;;;;2.47;1.70;;;;;;;22.49;62.88;97953.69;4199029;28;20642;-77
2023/07/20 00:30:25;;;;;;;2.23;1.70;;;;;;;22.47;62.64;97964.50;4189425;28;20664;-77
2023/07/20 00:32:28;;;;;;;3.07;2.13;;;;;;;22.43;63.36;97963.22;4206322;28;20624;-77
2023/07/20 00:34:33;;;;;;;2.50;2.10;;;;;;;22.41;62.35;97957.25;4204385;28;21144;-77
2023/07/20 00:36:36;;;;;;;3.13;1.73;;;;;;;22.39;63.16;97953.94;4213921;28;20647;-77
2023/07/20 00:38:40;;;;;;;3.47;1.90;;;;;;;22.37;62.54;97966.59;4191571;28;20641;-77
2023/07/20 00:40:45;;;;;;;3.00;2.13;;;;;;;22.34;62.99;97953.69;4191230;28;20798;-77
2023/07/20 00:42:48;;;;;;;2.33;1.53;;;;;;;22.31;62.75;97951.38;4200471;28;21050;-77
2023/07/20 00:44:57;;;;;;;2.73;2.03;;;;;;;22.28;63.55;97953.53;4184172;28;20653;-77
2023/07/20 00:47:01;;;;;;;2.47;1.80;;;;;;;22.24;63.53;97949.63;4204453;28;20638;-77
2023/07/20 00:49:06;;;;;;;3.57;1.70;;;;;;;22.21;63.50;97951.81;4202506;28;20652;-77
2023/07/20 00:51:08;;;;;;;2.70;1.80;;;;;;;22.17;63.23;97947.81;4199920;28;21007;-77
2023/07/20 00:53:12;;;;;;;4.13;2.10;;;;;;;22.13;63.58;97954.50;4199234;28;21094;-77
2023/07/20 00:55:15;;;;;;;2.43;1.80;;;;;;;22.09;64.04;97950.56;4205625;28;20675;-77
2023/07/20 00:57:19;;;;;;;2.63;2.00;;;;;;;22.01;63.90;97951.44;4205715;28;20634;-77
2023/07/20 00:59:22;;;;;;;2.33;1.57;;;;;;;21.94;64.67;97952.34;4199129;28;20673;-77
2023/07/20 01:01:25;;;;;;;3.10;2.03;;;;;;;21.89;64.61;97952.88;4199431;28;20735;-77
2023/07/20 01:03:29;;;;;;;2.77;1.80;;;;;;;21.85;63.63;97953.41;4190535;28;20653;-77
2023/07/20 01:05:46;;;;;;;3.03;2.00;;;;;;;21.82;64.72;97964.38;4195688;28;20706;-77
2023/07/20 01:07:54;;;;;;;2.77;1.73;;;;;;;21.77;65.09;97958.78;4183782;28;20650;-77
2023/07/20 01:10:02;;;;;;;2.50;1.87;;;;;;;21.74;64.64;97960.94;4205068;28;20673;-77
2023/07/20 01:12:08;;;;;;;2.47;1.60;;;;;;;21.68;65.39;97959.84;4206391;28;20702;-77
2023/07/20 01:14:13;;;;;;;2.73;2.20;;;;;;;21.62;66.13;97960.56;4187180;28;20664;-77
2023/07/20 01:16:16;;;;;;;3.00;1.80;;;;;;;21.55;66.07;97962.25;4199299;28;20689;-77
2023/07/20 01:18:19;;;;;;;2.90;1.80;;;;;;;21.50;65.61;97961.94;4204855;28;20685;-77
2023/07/20 01:20:24;;;;;;;2.90;1.97;;;;;;;21.44;67.35;97961.75;4201410;28;20684;-77
2023/07/20 01:22:39;;;;;;;2.40;1.90;;;;;;;21.38;66.23;97965.16;4188765;28;20639;-77
2023/07/20 01:25:13;;;;;;;5.00;2.30;;;;;;;21.31;66.25;97958.88;4202819;28;20638;-77
2023/07/20 01:27:48;;;;;;;2.77;2.00;;;;;;;21.25;66.23;97964.88;4192426;28;20642;-79
2023/07/20 01:30:15;;;;;;;2.13;1.60;;;;;;;21.19;66.42;97962.91;4208472;28;20690;-77
2023/07/20 01:32:20;;;;;;;2.63;2.00;;;;;;;21.15;67.18;97969.56;4205962;28;20744;-77
2023/07/20 01:34:24;;;;;;;3.20;2.03;;;;;;;21.12;65.82;97964.59;4207071;28;20815;-77
2023/07/20 01:36:29;;;;;;;5.13;2.10;;;;;;;21.12;66.93;97971.72;4210216;28;20744;-77
2023/07/20 01:38:32;;;;;;;2.63;1.83;;;;;;;21.09;66.28;97972.91;4210043;28;20628;-77
2023/07/20 01:40:36;;;;;;;4.83;1.93;;;;;;;21.08;66.64;97962.44;4187310;28;20687;-77
2023/07/20 01:42:44;;;;;;;3.40;1.80;;;;;;;21.05;66.47;97963.66;4191288;28;20652;-77
2023/07/20 01:44:47;;;;;;;5.43;2.10;;;;;;;21.03;66.62;97964.81;4213544;28;20636;-77
2023/07/20 01:46:50;;;;;;;2.90;1.80;;;;;;;21.01;68.04;97966.81;4206302;28;20688;-77
2023/07/20 01:48:55;;;;;;;2.77;1.90;;;;;;;20.98;67.12;97970.63;4205304;28;20654;-77
2023/07/20 01:50:58;;;;;;;2.97;1.93;;;;;;;20.94;67.94;97966.69;4183779;28;20649;-77
2023/07/20 01:53:02;;;;;;;2.53;1.80;;;;;;;20.89;67.72;97966.34;4202114;28;20663;-77
2023/07/20 01:55:06;;;;;;;3.20;2.27;;;;;;;20.84;68.85;97967.88;4205697;28;20702;-77
2023/07/20 01:57:09;;;;;;;2.63;1.90;;;;;;;20.81;67.59;97960.25;4195921;28;21094;-77
2023/07/20 01:59:13;;;;;;;2.53;1.73;;;;;;;20.77;69.15;97961.59;4203885;28;21546;-77
2023/07/20 02:01:16;;;;;;;2.97;1.90;;;;;;;20.66;69.40;97961.94;4205556;28;21314;-77
2023/07/20 02:03:21;;;;;;;2.40;1.63;;;;;;;20.56;68.40;97966.59;4220661;28;21215;-77
2023/07/20 02:05:26;;;;;;;3.07;1.50;;;;;;;20.48;68.68;97965.78;4202873;28;20658;-77
2023/07/20 02:07:28;;;;;;;3.20;2.00;;;;;;;20.44;69.87;97965.28;4206367;28;20679;-77
2023/07/20 02:09:32;;;;;;;2.63;1.70;;;;;;;20.43;70.48;97974.25;4205922;28;21260;-77
2023/07/20 02:11:35;;;;;;;2.50;1.90;;;;;;;20.41;69.19;97972.75;4192997;28;20701;-77
2023/07/20 02:13:38;;;;;;;3.50;1.67;;;;;;;20.34;68.96;97975.25;4204532;28;20659;-77
2023/07/20 02:15:42;;;;;;;4.47;2.17;;;;;;;20.28;70.00;97972.41;4207335;28;20690;-77
2023/07/20 02:17:46;;;;;;;2.70;1.90;;;;;;;20.23;70.19;97974.75;4213243;28;20652;-77
2023/07/20 02:19:51;;;;;;;2.50;1.83;;;;;;;20.15;69.72;97976.59;4208882;28;20641;-77
2023/07/20 02:21:56;;;;;;;2.87;1.90;;;;;;;20.12;69.86;97974.28;4203607;28;20643;-77
2023/07/20 02:23:59;;;;;;;4.73;2.20;;;;;;;20.06;69.60;97977.59;4206326;28;20763;-77
2023/07/20 02:26:03;;;;;;;2.93;1.93;;;;;;;20.01;70.34;97977.22;4190310;28;20638;-77
2023/07/20 02:28:06;;;;;;;2.40;1.80;;;;;;;19.99;69.97;97976.59;4204807;28;21221;-77
2023/07/20 02:30:10;;;;;;;4.00;1.80;;;;;;;19.98;69.86;97974.91;4204800;28;20639;-77
2023/07/20 02:32:14;;;;;;;2.60;1.97;;;;;;;19.95;69.73;97977.91;4204915;28;20647;-77
2023/07/20 02:34:17;;;;;;;4.33;2.20;;;;;;;19.89;70.68;97974.09;4192188;28;20730;-79
2023/07/20 02:36:22;;;;;;;2.80;1.73;;;;;;;19.84;71.13;97986.13;4194573;28;20632;-77
2023/07/20 02:38:28;;;;;;;4.63;2.30;;;;;;;19.79;70.91;97983.16;4208816;28;21000;-77
2023/07/20 02:40:31;;;;;;;2.90;1.90;;;;;;;19.69;71.24;97985.13;4183843;28;20701;-77
2023/07/20 02:42:34;;;;;;;5.10;2.20;;;;;;;19.58;71.46;97979.34;4201720;28;20688;-77
2023/07/20 02:44:37;;;;;;;2.57;1.83;;;;;;;19.52;71.77;97979.97;4194600;28;21052;-77
2023/07/20 02:46:42;;;;;;;2.77;1.80;;;;;;;19.43;72.43;97981.78;4205387;28;20651;-77
2023/07/20 02:48:45;;;;;;;3.40;2.00;;;;;;;19.36;72.24;97984.41;4190387;28;20687;-77
2023/07/20 02:50:48;;;;;;;3.20;2.00;;;;;;;19.32;73.07;97991.00;4211834;28;20628;-77
2023/07/20 02:52:51;;;;;;;3.70;2.13;;;;;;;19.27;72.63;97990.66;4207613;28;20645;-77
2023/07/20 02:54:56;;;;;;;3.93;2.30;;;;;;;19.26;73.03;97991.63;4183529;28;20693;-77
2023/07/20 02:57:01;;;;;;;5.67;1.90;;;;;;;19.26;73.54;97981.06;4191250;28;20644;-77
2023/07/20 02:59:04;;;;;;;2.97;2.10;;;;;;;19.27;73.06;97988.00;4200222;28;20995;-77
2023/07/20 03:01:07;;;;;;;2.70;2.00;;;;;;;19.24;73.29;97991.78;4200486;28;20652;-77
2023/07/20 03:03:11;;;;;;;4.10;2.33;;;;;;;19.22;72.91;97992.97;4199817;28;20659;-77
2023/07/20 03:05:16;;;;;;;2.60;1.90;;;;;;;19.18;72.52;97992.44;4218744;28;20646;-77
2023/07/20 03:07:19;;;;;;;3.47;2.10;;;;;;;19.14;72.42;97995.56;4208494;28;20735;-77
2023/07/20 03:09:22;;;;;;;3.07;2.30;;;;;;;19.05;72.81;97986.78;4205087;28;20662;-77
2023/07/20 03:11:27;;;;;;;2.67;1.90;;;;;;;18.98;73.47;98000.75;4190948;28;20651;-76
2023/07/20 03:13:30;;;;;;;2.90;1.80;;;;;;;18.90;73.40;97993.63;4201869;28;20734;-77
2023/07/20 03:15:33;;;;;;;3.83;1.70;;;;;;;18.87;73.86;97993.13;4186285;28;21284;-77
2023/07/20 03:17:37;;;;;;;4.23;2.50;;;;;;;18.78;73.95;97994.06;4203371;28;20689;-77
2023/07/20 03:19:41;;;;;;;4.40;1.90;;;;;;;18.74;74.57;98003.28;4192207;28;20651;-77
2023/07/20 03:21:45;;;;;;;3.00;2.10;;;;;;;18.68;74.47;98003.91;4205750;28;20650;-77
2023/07/20 03:23:48;;;;;;;4.40;3.10;;;;;;;18.64;74.23;98007.00;4206407;28;20656;-77
2023/07/20 03:25:54;;;;;;;2.80;2.20;;;;;;;18.63;74.08;98006.19;4202080;28;20639;-77
2023/07/20 03:28:00;;;;;;;6.20;1.90;;;;;;;18.61;74.19;98012.59;4183040;28;20626;-79
2023/07/20 03:30:06;;;;;;;3.20;2.00;;;;;;;18.59;75.22;98009.31;4196306;28;20650;-79
2023/07/20 03:32:10;;;;;;;3.23;1.93;;;;;;;18.60;74.93;98017.06;4202245;28;20660;-79
2023/07/20 03:34:13;;;;;;;3.20;2.07;;;;;;;18.63;75.12;98016.75;4200313;28;20649;-79
2023/07/20 03:36:18;;;;;;;3.03;2.37;;;;;;;18.64;75.20;98020.22;4190286;28;20711;-79
2023/07/20 03:38:22;;;;;;;3.03;2.07;;;;;;;18.64;75.26;98014.94;4190892;28;20671;-79
2023/07/20 03:40:25;;;;;;;2.87;2.00;;;;;;;18.61;75.82;98016.09;4209949;28;20702;-79
2023/07/20 03:42:28;;;;;;;3.40;2.27;;;;;;;18.56;75.92;98026.28;4191236;28;20706;-79
2023/07/20 03:44:33;;;;;;;3.63;2.20;;;;;;;18.51;75.38;98020.66;4203524;28;20691;-79
2023/07/20 03:46:37;;;;;;;4.07;2.40;;;;;;;18.45;75.14;98023.91;4183872;28;21135;-79
2023/07/20 03:48:40;;;;;;;3.93;2.60;;;;;;;18.43;75.97;98019.75;4209069;28;20661;-79
2023/07/20 03:50:45;;;;;;;3.87;2.10;;;;;;;18.41;75.31;98025.19;4189796;28;20686;-79
2023/07/20 03:52:48;;;;;;;5.10;2.40;;;;;;;18.39;75.61;98030.78;4208394;28;20665;-79
2023/07/20 03:54:52;;;;;;;4.13;2.33;;;;;;;18.35;76.29;98022.34;4189703;28;20682;-79
2023/07/20 03:56:55;;;;;;;2.90;2.03;;;;;;;18.34;76.30;98030.41;4179468;28;20701;-79
2023/07/20 03:58:58;;;;;;;8.40;2.13;;;;;;;18.35;75.67;98030.28;4204913;28;21051;-79
2023/07/20 04:01:03;;;;;;;3.47;2.23;;;;;;;18.36;76.18;98033.72;4190821;28;20818;-79
2023/07/20 04:03:07;;;;;;;3.90;2.23;;;;;;;18.34;75.68;98031.25;4201393;28;20639;-79
2023/07/20 04:05:10;;;;;;;5.00;2.20;;;;;;;18.32;75.08;98033.22;4182226;28;20692;-79
2023/07/20 04:07:13;;;;;;;5.50;2.93;;;;;;;18.28;76.13;98031.03;4185296;28;20731;-79
2023/07/20 04:09:18;;;;;;;3.30;2.37;;;;;;;18.30;75.69;98035.19;4201755;28;20699;-79
2023/07/20 04:11:21;;;;;;;2.80;2.20;;;;;;;18.31;75.89;98036.00;4201210;28;21064;-79
2023/07/20 04:13:24;;;;;;;4.40;2.27;;;;;;;18.34;75.42;98041.81;4186951;28;20641;-79
2023/07/20 04:15:27;;;;;;;2.83;2.33;;;;;;;18.39;75.73;98044.00;4203866;28;20672;-79
2023/07/20 04:17:32;;;;;;;2.70;2.00;;;;;;;18.42;75.23;98050.63;4188090;28;20739;-79
2023/07/20 04:19:35;;;;;;;2.70;2.13;;;;;;;18.51;75.08;98044.44;4200849;28;20658;-79
2023/07/20 04:21:41;;;;;;;2.80;1.83;;;;;;;18.57;75.13;98054.38;4184780;28;20762;-79
2023/07/20 04:23:45;;;;;;;3.27;2.30;;;;;;;18.63;75.27;98056.41;4189246;28;21223;-79
2023/07/20 04:25:49;;;;;;;5.60;3.00;;;;;;;18.67;75.22;98062.19;4207260;28;20641;-77
2023/07/20 04:27:53;;;;;;;2.50;1.87;;;;;;;18.69;74.89;98062.88;4208392;28;20653;-77
2023/07/20 04:29:57;;;;;;;3.17;2.20;;;;;;;18.71;74.91;98067.00;4223013;28;20855;-77
2023/07/20 04:32:00;;;;;;;3.47;2.00;;;;;;;18.72;74.93;98060.75;4206720;28;20686;-77
2023/07/20 04:34:04;;;;;;;3.60;2.67;;;;;;;18.75;74.76;98054.31;4188672;28;20692;-77
2023/07/20 04:36:10;;;;;;;2.83;2.00;;;;;;;18.78;74.64;98062.78;4213703;28;20659;-77
2023/07/20 04:38:12;;;;;;;2.63;1.83;;;;;;;18.79;74.93;98056.50;4201666;28;21396;-77
2023/07/20 04:40:17;;;;;;;4.67;2.50;;;;;;;18.81;75.23;98061.63;4190671;28;20678;-77
2023/07/20 04:42:20;;;;;;;3.43;2.40;;;;;;;18.87;74.51;98067.13;4190797;28;20636;-77
2023/07/20 04:44:24;;;;;;;2.43;2.07;;;;;;;18.93;74.77;98066.50;4194087;28;20654;-77
2023/07/20 04:46:27;;;;;;;5.90;2.23;;;;;;;18.96;75.57;98064.38;4193399;28;21238;-77
2023/07/20 04:48:31;;;;;;;3.80;2.53;;;;;;;19.01;75.94;98063.91;4220395;28;21083;-77
2023/07/20 04:50:35;;;;;;;3.67;2.43;;;;;;;19.03;74.52;98065.44;4205032;28;20767;-77
2023/07/20 04:52:38;;;;;;;4.10;2.67;;;;;;;19.09;74.75;98066.63;4186214;28;20652;-77
2023/07/20 04:54:50;;;;;;;4.00;1.87;;;;;;;19.14;74.92;98057.22;4212252;28;20732;-76
2023/07/20 04:56:55;;;;;;;3.73;2.27;;;;;;;19.20;74.99;98061.03;4222796;28;20691;-77
2023/07/20 04:58:59;;;;;;;1.93;1.70;;;;;;;19.21;75.54;98063.53;4185790;28;20640;-77
2023/07/20 05:01:02;;;;;;;3.40;2.23;;;;;;;19.24;75.54;98060.56;4203821;28;20724;-77
2023/07/20 05:03:07;;;;;;;4.50;1.90;;;;;;;19.28;75.41;98071.69;4200603;28;20646;-77
2023/07/20 05:05:10;;;;;;;2.90;2.23;;;;;;;19.29;74.93;98066.22;4192107;28;20709;-77
2023/07/20 05:07:15;;;;;;;2.77;2.00;;;;;;;19.37;74.74;98077.66;4205680;28;20645;-77
2023/07/20 05:09:18;;;;;;;5.53;2.47;;;;;;;19.43;74.95;98065.63;4200827;28;20643;-77
2023/07/20 05:11:21;;;;;;;3.20;2.10;;;;;;;19.51;74.28;98074.41;4199761;28;20662;-77
2023/07/20 05:13:25;;;;;;;3.80;2.57;;;;;;;19.57;75.00;98068.47;4203128;28;20728;-77
2023/07/20 05:15:29;;;;;;;3.30;2.30;;;;;;;19.64;74.52;98077.44;4193011;28;20645;-76
2023/07/20 05:17:34;;;;;;;3.50;1.97;;;;;;;19.72;73.98;98073.97;4187276;28;20713;-77
2023/07/20 05:19:38;;;;;;;3.20;2.30;;;;;;;19.79;74.93;98080.31;4186131;28;21047;-77
2023/07/20 05:21:42;;;;;;;3.13;2.07;;;;;;;19.86;73.79;98084.81;4185293;28;20645;-77
2023/07/20 05:23:47;;;;;;;3.23;2.53;;;;;;;19.93;73.66;98091.09;4188850;28;20653;-77
2023/07/20 05:25:55;;;;;;;3.37;2.40;;;;;;;20.00;73.60;98089.47;4201961;28;20641;-77
2023/07/20 05:27:58;;;;;;;4.80;2.33;;;;;;;20.08;75.39;98090.31;4201464;28;20653;-77
2023/07/20 05:30:01;;;;;;;5.37;2.50;;;;;;;20.13;74.41;98088.00;4197358;28;20655;-77
2023/07/20 05:32:07;;;;;;;4.27;2.40;;;;;;;20.23;73.26;98085.22;4199567;28;20657;-77
2023/07/20 05:34:10;;;;;;;5.70;2.27;;;;;;;20.31;74.72;98093.97;4179697;28;20715;-76
2023/07/20 05:36:13;;;;;;;2.93;2.03;;;;;;;20.37;72.64;98086.22;4203299;28;20778;-77
2023/07/20 05:38:16;;;;;;;3.70;2.43;;;;;;;20.48;73.03;98090.34;4204230;28;21396;-77
2023/07/20 05:40:21;;;;;;;3.03;2.13;;;;;;;20.58;72.23;98083.91;4202522;28;20659;-77
2023/07/20 05:42:24;;;;;;;4.30;2.13;;;;;;;20.70;73.16;98082.56;4200117;28;20743;-79
2023/07/20 05:44:27;;;;;;;4.43;2.53;;;;;;;20.84;72.31;98084.56;4199753;28;20651;-77
2023/07/20 05:46:30;;;;;;;3.10;2.03;;;;;;;21.01;71.96;98088.84;4200127;28;20652;-77
2023/07/20 05:48:53;;;;;;;3.57;2.13;;;;;;;21.20;70.43;98086.63;4207064;28;20647;-77
2023/07/20 05:50:56;;;;;;;2.67;2.20;;;;;;;21.48;70.64;98096.66;4201180;28;20650;-78
2023/07/20 05:52:59;;;;;;;3.77;2.63;;;;;;;21.87;69.60;98100.16;4198585;28;20648;-78
2023/07/20 05:55:03;;;;;;;2.90;2.20;;;;;;;22.12;67.66;98097.19;4205787;28;20641;-77
2023/07/20 05:57:08;;;;;;;4.13;2.30;;;;;;;22.48;67.44;98109.75;4195179;28;20667;-77
2023/07/20 05:59:11;;;;;;;3.70;1.93;;;;;;;22.79;65.91;98102.50;4204367;28;20640;-77
2023/07/20 06:01:14;;;;;;;3.70;2.27;;;;;;;23.10;65.50;98111.22;4201778;28;20667;-77
2023/07/20 06:03:18;;;;;;;3.43;2.47;;;;;;;23.27;64.41;98111.72;4209910;28;20691;-77
2023/07/20 06:05:21;;;;;;;3.90;2.40;;;;;;;23.59;64.33;98107.84;4198795;28;21015;-77
2023/07/20 06:07:24;;;;;;;2.60;1.97;;;;;;;23.95;62.87;98114.88;4186566;28;20787;-77
2023/07/20 06:09:29;;;;;;;4.30;2.10;;;;;;;24.31;63.43;98117.38;4197634;28;20647;-77
2023/07/20 06:11:32;;;;;;;2.83;2.00;;;;;;;24.62;61.52;98120.59;4200565;28;20640;-77
2023/07/20 06:13:37;;;;;;;3.80;2.17;;;;;;;24.92;61.23;98116.75;4193752;28;20735;-77
2023/07/20 06:15:41;;;;;;;2.50;1.90;;;;;;;25.24;61.52;98117.88;4201366;28;21305;-77
2023/07/20 06:17:44;;;;;;;4.73;2.23;;;;;;;25.50;60.93;98119.88;4202150;28;20670;-77
2023/07/20 06:19:47;;;;;;;4.37;2.53;;;;;;;25.66;60.79;98113.25;4199825;28;20746;-77
2023/07/20 06:21:50;;;;;;;4.77;2.07;;;;;;;25.83;59.92;98113.72;4197568;28;20742;-77
2023/07/20 06:23:54;;;;;;;3.27;2.20;;;;;;;25.97;58.59;98116.25;4210048;28;20654;-77
2023/07/20 06:25:57;;;;;;;3.10;2.07;;;;;;;26.08;59.44;98115.66;4215694;28;20651;-77
2023/07/20 06:28:00;;;;;;;4.10;2.10;;;;;;;26.24;58.58;98113.47;4203760;28;20654;-77
2023/07/20 06:30:05;;;;;;;3.63;2.57;;;;;;;26.35;58.67;98118.25;4201538;28;21009;-77
2023/07/20 06:32:09;;;;;;;4.30;2.47;;;;;;;26.50;57.98;98113.56;4206207;28;21232;-77
2023/07/20 06:34:12;;;;;;;2.70;2.30;;;;;;;26.55;57.79;98111.09;4202822;28;20648;-77
2023/07/20 06:36:18;;;;;;;4.20;2.70;;;;;;;26.70;58.20;98111.72;4207985;28;20660;-77
2023/07/20 06:38:23;;;;;;;3.30;1.97;;;;;;;26.84;57.75;98105.38;4199357;28;20666;-77
2023/07/20 06:40:29;;;;;;;3.93;2.03;;;;;;;27.00;58.25;98107.66;4201503;28;20705;-77
2023/07/20 06:42:35;;;;;;;4.40;1.97;;;;;;;27.16;56.28;98103.53;4201604;28;20652;-77
2023/07/20 06:44:43;;;;;;;3.90;2.17;;;;;;;27.31;56.45;98111.34;4187766;28;21075;-77
2023/07/20 06:46:47;;;;;;;3.60;2.63;;;;;;;27.51;57.48;98115.66;4203457;28;20978;-77
2023/07/20 06:48:50;;;;;;;3.30;2.07;;;;;;;27.67;55.84;98120.59;4221248;28;21074;-77
2023/07/20 06:50:57;;;;;;;5.33;2.07;;;;;;;27.64;55.98;98107.59;4187314;28;20640;-77
2023/07/20 06:52:59;;;;;;;3.40;2.10;;;;;;;27.42;56.24;98108.03;4200092;28;20652;-77
2023/07/20 06:55:03;;;;;;;3.30;2.00;;;;;;;27.54;56.81;98109.88;4205517;28;21014;-77
2023/07/20 06:57:08;;;;;;;2.57;1.83;;;;;;;27.74;55.95;98097.25;4204015;28;20657;-77
2023/07/20 06:59:14;;;;;;;3.90;1.70;;;;;;;27.88;56.10;98101.53;4199736;28;21255;-77
2023/07/20 07:01:17;;;;;;;3.07;2.20;;;;;;;28.09;56.29;98102.91;4202806;28;20673;-77
2023/07/20 07:03:22;;;;;;;3.00;1.80;;;;;;;28.26;54.93;98101.38;4201402;28;20655;-77
2023/07/20 07:05:30;;;;;;;2.93;2.20;;;;;;;28.27;54.57;98103.03;4192110;28;20651;-77
2023/07/20 07:07:37;;;;;;;2.43;1.70;;;;;;;28.34;54.36;98095.78;4200936;28;21056;-77
2023/07/20 07:09:43;;;;;;;3.47;2.27;;;;;;;28.24;54.57;98098.09;4203299;28;20681;-78
2023/07/20 07:11:46;;;;;;;3.10;2.00;;;;;;;27.83;54.57;98088.78;4198153;28;20653;-77
2023/07/20 07:13:51;;;;;;;10.40;8.57;;;;;;;27.32;56.52;98075.47;4194929;28;20805;-77
2023/07/20 07:15:54;;;;;;;3.60;2.60;;;;;;;27.27;55.81;98075.28;4204993;28;20651;-77
2023/07/20 07:17:59;;;;;;;3.10;1.80;;;;;;;27.56;56.47;98084.53;4202000;28;20648;-77
2023/07/20 07:20:04;;;;;;;5.77;3.00;;;;;;;27.71;55.66;98085.09;4200260;28;20640;-77
2023/07/20 07:22:10;;;;;;;2.20;1.73;;;;;;;27.85;56.62;98081.31;4216940;28;20615;-77
2023/07/20 07:24:13;;;;;;;3.70;2.30;;;;;;;27.98;55.80;98091.16;4201211;28;20646;-77
2023/07/20 07:26:21;;;;;;;2.73;1.83;;;;;;;27.67;55.64;98073.13;4203661;28;20662;-77
2023/07/20 07:28:24;;;;;;;4.30;2.00;;;;;;;27.77;55.52;98078.03;4192936;28;20740;-77
2023/07/20 07:30:28;;;;;;;3.80;2.03;;;;;;;27.98;55.25;98072.38;4184901;28;20654;-77
2023/07/20 07:32:31;;;;;;;3.13;1.67;;;;;;;28.16;55.24;98071.50;4200354;28;20745;-77
2023/07/20 07:34:35;;;;;;;5.93;1.93;;;;;;;28.35;55.27;98080.47;4203989;28;20757;-77
2023/07/20 07:36:39;;;;;;;3.63;2.03;;;;;;;28.30;56.31;98070.41;4203802;28;20646;-77
2023/07/20 07:38:42;;;;;;;4.40;2.00;;;;;;;28.35;54.93;98073.25;4196725;28;20762;-77
2023/07/20 07:40:47;;;;;;;2.57;1.77;;;;;;;28.59;57.07;98075.97;4210323;28;20665;-77
2023/07/20 07:42:51;;;;;;;2.33;2.03;;;;;;;28.22;55.19;98062.59;4200326;28;20707;-77
2023/07/20 07:44:54;;;;;;;3.50;2.13;;;;;;;27.82;56.61;98054.94;4215811;28;20656;-77
2023/07/20 07:46:57;;;;;;;4.43;2.00;;;;;;;27.53;57.48;98051.97;4200115;28;20675;-77
2023/07/20 07:49:00;;;;;;;3.60;2.03;;;;;;;27.37;57.42;98056.91;4196375;28;20651;-78
2023/07/20 07:51:03;;;;;;;3.33;2.03;;;;;;;27.58;57.63;98063.69;4201032;28;20695;-77
2023/07/20 07:53:08;;;;;;;3.07;1.93;;;;;;;27.53;56.81;98055.44;4198830;28;20687;-77
2023/07/20 07:55:11;;;;;;;3.43;2.30;;;;;;;27.36;57.65;98058.75;4212362;28;20639;-77
2023/07/20 07:57:15;;;;;;;6.20;2.17;;;;;;;27.16;57.52;98049.94;4192544;28;20790;-77
2023/07/20 07:59:18;;;;;;;2.47;2.10;;;;;;;27.28;58.27;98058.97;4202258;28;20650;-77
2023/07/20 08:01:22;;;;;;;3.67;2.60;;;;;;;27.80;58.81;98062.38;4196074;28;20665;-77
2023/07/20 08:03:26;;;;;;;3.50;2.20;;;;;;;28.21;56.34;98071.69;4205079;28;20759;-78
2023/07/20 08:05:29;;;;;;;3.27;1.50;;;;;;;28.42;55.01;98068.66;4199852;28;20653;-76
2023/07/20 08:07:32;;;;;;;3.20;2.03;;;;;;;28.63;55.03;98062.94;4206934;28;20694;-76
2023/07/20 08:09:37;;;;;;;2.57;1.70;;;;;;;28.84;55.52;98060.75;4201092;28;20673;-76
2023/07/20 08:11:40;;;;;;;4.07;2.40;;;;;;;28.98;54.78;98063.06;4199240;28;21474;-76
2023/07/20 08:13:43;;;;;;;2.57;2.07;;;;;;;28.95;54.49;98060.00;4180742;28;20702;-76
2023/07/20 08:15:50;;;;;;;3.37;1.93;;;;;;;28.48;53.95;98052.50;4217623;28;20642;-76
2023/07/20 08:17:53;;;;;;;3.27;2.47;;;;;;;28.21;54.34;98047.53;4208976;28;20650;-76
2023/07/20 08:19:57;;;;;;;2.73;1.90;;;;;;;27.77;56.34;98046.69;4212407;28;20646;-76
2023/07/20 08:22:00;;;;;;;3.80;2.33;;;;;;;27.83;56.62;98045.84;4199840;28;20643;-76
2023/07/20 08:24:03;;;;;;;3.27;2.10;;;;;;;27.61;56.46;98051.72;4196580;28;20651;-77
2023/07/20 08:26:08;;;;;;;3.77;2.03;;;;;;;27.43;56.42;98043.50;4201250;28;20770;-76
2023/07/20 08:28:11;;;;;;;2.57;2.00;;;;;;;27.60;56.54;98047.38;4201129;28;20648;-76
2023/07/20 08:30:14;;;;;;;4.30;2.40;;;;;;;27.47;56.85;98047.41;4204050;28;20678;-76
2023/07/20 08:32:17;;;;;;;3.53;1.80;;;;;;;27.47;56.00;98042.03;4200109;28;20635;-77
2023/07/20 08:34:20;;;;;;;2.53;1.80;;;;;;;27.24;57.18;98033.66;4199761;28;20643;-76
2023/07/20 08:36:34;;;;;;;7.63;2.43;;;;;;;27.01;55.42;98032.44;4193905;28;20692;-76
2023/07/20 08:38:37;;;;;;;6.10;4.20;;;;;;;26.97;57.35;98039.25;4211320;28;20658;-76
2023/07/20 08:40:42;;;;;;;2.07;1.50;;;;;;;27.35;57.33;98035.69;4201685;28;20699;-76
2023/07/20 08:42:47;;;;;;;4.47;2.00;;;;;;;27.73;56.55;98041.97;4203175;28;20686;-76
2023/07/20 08:44:51;;;;;;;2.20;1.77;;;;;;;27.75;56.71;98046.06;4201506;28;21226;-76
2023/07/20 08:46:55;;;;;;;2.70;1.97;;;;;;;27.88;53.44;98045.22;4200655;28;20698;-75
2023/07/20 08:48:58;;;;;;;3.13;2.10;;;;;;;27.89;55.18;98044.16;4200045;28;21336;-76
2023/07/20 08:51:02;;;;;;;3.10;1.93;;;;;;;27.67;56.08;98040.13;4198407;28;20948;-76
2023/07/20 08:53:07;;;;;;;1.97;1.53;;;;;;;27.84;54.48;98043.97;4194276;28;21262;-76
2023/07/20 08:55:10;;;;;;;3.03;1.87;;;;;;;27.85;54.68;98043.78;4200112;28;21055;-76
2023/07/20 08:57:15;;;;;;;3.07;2.10;;;;;;;27.50;54.54;98035.44;4203693;28;20691;-76
2023/07/20 08:59:21;;;;;;;3.80;2.07;;;;;;;27.14;54.59;98033.25;4198535;28;21339;-76
2023/07/20 09:01:24;;;;;;;4.63;1.73;;;;;;;26.89;54.64;98030.63;4193112;28;20659;-76
2023/07/20 09:03:28;;;;;;;3.43;2.00;;;;;;;27.01;56.35;98029.78;4213653;28;20647;-76
2023/07/20 09:05:31;;;;;;;3.13;2.00;;;;;;;27.32;55.53;98027.22;4216468;28;20675;-76
2023/07/20 09:07:36;;;;;;;3.57;2.13;;;;;;;27.59;54.63;98032.34;4197651;28;20675;-76
2023/07/20 09:09:41;;;;;;;2.80;2.00;;;;;;;27.48;53.94;98032.94;4192789;28;20735;-76
2023/07/20 09:11:45;;;;;;;3.83;1.73;;;;;;;27.20;55.37;98029.75;4204452;28;20654;-76
2023/07/20 09:13:48;;;;;;;3.07;2.23;;;;;;;27.07;55.03;98024.41;4217190;28;20654;-76
2023/07/20 09:15:55;;;;;;;3.57;1.90;;;;;;;26.93;56.33;98026.47;4200120;28;20665;-76
2023/07/20 09:18:02;;;;;;;3.70;1.97;;;;;;;26.76;55.64;98022.53;4202054;28;20645;-76
2023/07/20 09:20:09;;;;;;;2.60;2.10;;;;;;;26.56;56.39;98016.38;4187566;28;20764;-76
2023/07/20 09:22:12;;;;;;;5.57;2.33;;;;;;;26.38;56.72;98026.88;4199900;28;20666;-76
2023/07/20 09:24:18;;;;;;;3.00;1.93;;;;;;;26.58;56.92;98030.38;4194498;28;20669;-76
2023/07/20 09:26:21;;;;;;;2.80;2.13;;;;;;;26.98;57.07;98029.38;4195414;28;20642;-76
2023/07/20 09:28:25;;;;;;;3.27;1.80;;;;;;;27.46;55.98;98032.34;4195418;28;20632;-76
2023/07/20 09:30:28;;;;;;;2.97;1.90;;;;;;;27.84;55.66;98030.56;4186210;28;20692;-76
2023/07/20 09:32:40;;;;;;;3.30;1.97;;;;;;;28.10;51.85;98037.47;4215377;28;20653;-76
2023/07/20 09:34:56;;;;;;;1.90;1.53;;;;;;;28.32;51.57;98035.28;4202810;28;21428;-76
2023/07/20 09:37:00;;;;;;;2.20;1.70;;;;;;;28.28;51.79;98034.06;4204646;28;20705;-76
2023/07/20 09:39:05;;;;;;;2.17;1.73;;;;;;;28.06;51.64;98030.84;4201684;28;21198;-76
2023/07/20 09:41:09;;;;;;;2.40;1.83;;;;;;;28.04;52.13;98032.94;4203512;28;20674;-76
2023/07/20 09:43:33;;;;;;;3.17;2.73;;;;;;;28.26;51.16;98030.78;4196815;28;20655;-76
2023/07/20 09:45:37;;;;;;;3.23;2.47;;;;;;;28.37;51.99;98038.97;4201129;28;20652;-76
2023/07/20 09:48:06;;;;;;;3.10;2.07;;;;;;;28.43;52.82;98038.09;4203621;28;20727;-76